sensor_id;sensor_type;location;lat;lon;timestamp;P1;durP1;ratioP1;P2;durP2;ratioP2
3849;SDS011;1940;51.052;13.678;2023-04-25T00:01:10;4.57;;;3.57;;
3849;SDS011;1940;51.052;13.678;2023-04-25T00:03:37;4.03;;;3.13;;
3849;SDS011;1940;51.052;13.678;2023-04-25T00:06:03;6.00;;;3.10;;
3849;SDS011;1940;51.052;13.678;2023-04-25T00:08:29;3.83;;;3.00;;
3849;SDS011;1940;51.052;13.678;2023-04-25T00:10:56;3.60;;;2.80;;
3849;SDS011;1940;51.052;13.678;2023-04-25T00:13:22;4.83;;;3.20;;
3849;SDS011;1940;51.052;13.678;2023-04-25T00:15:47;5.73;;;3.43;;
3849;SDS011;1940;51.052;13.678;2023-04-25T00:18:13;5.67;;;3.67;;
3849;SDS011;1940;51.052;13.678;2023-04-25T00:20:39;4.70;;;3.30;;
3849;SDS011;1940;51.052;13.678;2023-04-25T00:23:05;3.93;;;3.20;;
3849;SDS011;1940;51.052;13.678;2023-04-25T00:25:31;5.30;;;3.63;;
3849;SDS011;1940;51.052;13.678;2023-04-25T00:27:56;5.50;;;3.80;;
3849;SDS011;1940;51.052;13.678;2023-04-25T00:30:22;5.10;;;3.50;;
3849;SDS011;1940;51.052;13.678;2023-04-25T00:32:47;4.90;;;3.57;;
3849;SDS011;1940;51.052;13.678;2023-04-25T00:35:13;4.60;;;3.20;;
3849;SDS011;1940;51.052;13.678;2023-04-25T00:37:39;5.30;;;3.80;;
3849;SDS011;1940;51.052;13.678;2023-04-25T00:40:05;5.50;;;3.60;;
3849;SDS011;1940;51.052;13.678;2023-04-25T00:42:31;7.67;;;4.27;;
3849;SDS011;1940;51.052;13.678;2023-04-25T00:44:58;5.77;;;3.97;;
3849;SDS011;1940;51.052;13.678;2023-04-25T00:47:24;4.67;;;3.70;;
3849;SDS011;1940;51.052;13.678;2023-04-25T00:49:50;5.43;;;4.03;;
3849;SDS011;1940;51.052;13.678;2023-04-25T00:52:16;5.27;;;3.60;;
3849;SDS011;1940;51.052;13.678;2023-04-25T00:54:41;4.70;;;3.60;;
3849;SDS011;1940;51.052;13.678;2023-04-25T00:57:07;6.37;;;4.07;;
3849;SDS011;1940;51.052;13.678;2023-04-25T00:59:33;7.10;;;3.77;;
3849;SDS011;1940;51.052;13.678;2023-04-25T01:01:59;5.90;;;3.77;;
3849;SDS011;1940;51.052;13.678;2023-04-25T01:07:21;9.43;;;4.03;;
3849;SDS011;1940;51.052;13.678;2023-04-25T01:09:46;6.87;;;4.10;;
3849;SDS011;1940;51.052;13.678;2023-04-25T01:12:12;6.60;;;4.57;;
3849;SDS011;1940;51.052;13.678;2023-04-25T01:14:39;7.50;;;4.07;;
3849;SDS011;1940;51.052;13.678;2023-04-25T01:17:04;8.17;;;4.50;;
3849;SDS011;1940;51.052;13.678;2023-04-25T01:19:32;7.43;;;4.40;;
3849;SDS011;1940;51.052;13.678;2023-04-25T01:21:58;8.53;;;4.50;;
3849;SDS011;1940;51.052;13.678;2023-04-25T01:24:23;6.77;;;4.30;;
3849;SDS011;1940;51.052;13.678;2023-04-25T01:26:49;8.10;;;4.90;;
3849;SDS011;1940;51.052;13.678;2023-04-25T01:29:16;6.43;;;4.63;;
3849;SDS011;1940;51.052;13.678;2023-04-25T01:31:43;6.80;;;4.00;;
3849;SDS011;1940;51.052;13.678;2023-04-25T01:34:09;7.43;;;4.17;;
3849;SDS011;1940;51.052;13.678;2023-04-25T01:36:36;7.00;;;4.50;;
3849;SDS011;1940;51.052;13.678;2023-04-25T01:39:01;6.27;;;4.30;;
3849;SDS011;1940;51.052;13.678;2023-04-25T01:41:27;8.90;;;4.50;;
3849;SDS011;1940;51.052;13.678;2023-04-25T01:43:53;11.33;;;4.60;;
3849;SDS011;1940;51.052;13.678;2023-04-25T01:46:19;9.40;;;4.30;;
3849;SDS011;1940;51.052;13.678;2023-04-25T01:48:44;8.43;;;4.90;;
3849;SDS011;1940;51.052;13.678;2023-04-25T01:51:10;7.73;;;4.27;;
3849;SDS011;1940;51.052;13.678;2023-04-25T01:53:36;7.63;;;4.10;;
3849;SDS011;1940;51.052;13.678;2023-04-25T01:56:02;7.97;;;4.60;;
3849;SDS011;1940;51.052;13.678;2023-04-25T01:58:28;7.13;;;4.00;;
3849;SDS011;1940;51.052;13.678;2023-04-25T02:00:54;7.13;;;4.50;;
3849;SDS011;1940;51.052;13.678;2023-04-25T02:03:19;7.30;;;4.50;;
3849;SDS011;1940;51.052;13.678;2023-04-25T02:05:45;7.43;;;4.57;;
3849;SDS011;1940;51.052;13.678;2023-04-25T02:08:10;8.13;;;4.90;;
3849;SDS011;1940;51.052;13.678;2023-04-25T02:10:36;7.00;;;4.60;;
3849;SDS011;1940;51.052;13.678;2023-04-25T02:13:02;7.60;;;4.43;;
3849;SDS011;1940;51.052;13.678;2023-04-25T02:15:29;6.93;;;4.30;;
3849;SDS011;1940;51.052;13.678;2023-04-25T02:17:54;8.10;;;4.57;;
3849;SDS011;1940;51.052;13.678;2023-04-25T02:20:20;8.47;;;4.47;;
3849;SDS011;1940;51.052;13.678;2023-04-25T02:22:46;9.47;;;5.07;;
3849;SDS011;1940;51.052;13.678;2023-04-25T02:25:12;8.10;;;4.40;;
3849;SDS011;1940;51.052;13.678;2023-04-25T02:27:37;6.50;;;4.60;;
3849;SDS011;1940;51.052;13.678;2023-04-25T02:30:04;6.50;;;4.33;;
3849;SDS011;1940;51.052;13.678;2023-04-25T02:32:31;6.00;;;4.20;;
3849;SDS011;1940;51.052;13.678;2023-04-25T02:34:57;9.70;;;5.20;;
3849;SDS011;1940;51.052;13.678;2023-04-25T02:37:28;7.27;;;4.83;;
3849;SDS011;1940;51.052;13.678;2023-04-25T02:39:54;7.90;;;3.97;;
3849;SDS011;1940;51.052;13.678;2023-04-25T02:42:20;7.10;;;4.13;;
3849;SDS011;1940;51.052;13.678;2023-04-25T02:44:45;8.63;;;4.87;;
3849;SDS011;1940;51.052;13.678;2023-04-25T02:47:11;7.33;;;4.60;;
3849;SDS011;1940;51.052;13.678;2023-04-25T02:49:36;7.60;;;4.40;;
3849;SDS011;1940;51.052;13.678;2023-04-25T02:52:02;7.60;;;4.47;;
3849;SDS011;1940;51.052;13.678;2023-04-25T02:54:27;8.70;;;4.07;;
3849;SDS011;1940;51.052;13.678;2023-04-25T02:56:53;8.10;;;4.63;;
3849;SDS011;1940;51.052;13.678;2023-04-25T02:59:18;7.87;;;4.40;;
3849;SDS011;1940;51.052;13.678;2023-04-25T03:01:44;8.20;;;4.67;;
3849;SDS011;1940;51.052;13.678;2023-04-25T03:04:10;8.60;;;4.47;;
3849;SDS011;1940;51.052;13.678;2023-04-25T03:06:35;8.80;;;4.60;;
3849;SDS011;1940;51.052;13.678;2023-04-25T03:09:01;8.83;;;5.37;;
3849;SDS011;1940;51.052;13.678;2023-04-25T03:11:26;8.87;;;5.17;;
3849;SDS011;1940;51.052;13.678;2023-04-25T03:13:52;11.10;;;5.50;;
3849;SDS011;1940;51.052;13.678;2023-04-25T03:16:17;10.00;;;4.80;;
3849;SDS011;1940;51.052;13.678;2023-04-25T03:18:43;6.47;;;4.30;;
3849;SDS011;1940;51.052;13.678;2023-04-25T03:21:08;7.47;;;4.60;;
3849;SDS011;1940;51.052;13.678;2023-04-25T03:23:34;11.87;;;5.30;;
3849;SDS011;1940;51.052;13.678;2023-04-25T03:25:59;7.10;;;4.43;;
3849;SDS011;1940;51.052;13.678;2023-04-25T03:28:25;11.50;;;5.30;;
3849;SDS011;1940;51.052;13.678;2023-04-25T03:30:51;9.00;;;5.07;;
3849;SDS011;1940;51.052;13.678;2023-04-25T03:33:16;7.17;;;5.10;;
3849;SDS011;1940;51.052;13.678;2023-04-25T03:35:41;9.30;;;5.53;;
3849;SDS011;1940;51.052;13.678;2023-04-25T03:38:07;8.97;;;5.30;;
3849;SDS011;1940;51.052;13.678;2023-04-25T03:40:33;8.80;;;5.13;;
3849;SDS011;1940;51.052;13.678;2023-04-25T03:42:59;7.50;;;5.13;;
3849;SDS011;1940;51.052;13.678;2023-04-25T03:45:24;8.03;;;5.27;;
3849;SDS011;1940;51.052;13.678;2023-04-25T03:47:50;7.83;;;5.33;;
3849;SDS011;1940;51.052;13.678;2023-04-25T03:50:16;8.17;;;5.37;;
3849;SDS011;1940;51.052;13.678;2023-04-25T03:52:42;9.87;;;5.30;;
3849;SDS011;1940;51.052;13.678;2023-04-25T03:55:08;14.43;;;5.67;;
3849;SDS011;1940;51.052;13.678;2023-04-25T03:57:34;11.97;;;5.87;;
3849;SDS011;1940;51.052;13.678;2023-04-25T04:00:00;9.37;;;5.43;;
3849;SDS011;1940;51.052;13.678;2023-04-25T04:02:25;7.63;;;5.10;;
3849;SDS011;1940;51.052;13.678;2023-04-25T04:04:51;9.60;;;5.80;;
3849;SDS011;1940;51.052;13.678;2023-04-25T04:07:17;9.30;;;5.27;;
3849;SDS011;1940;51.052;13.678;2023-04-25T04:09:42;10.10;;;5.27;;
3849;SDS011;1940;51.052;13.678;2023-04-25T04:12:08;10.20;;;5.10;;
3849;SDS011;1940;51.052;13.678;2023-04-25T04:14:33;7.87;;;5.50;;
3849;SDS011;1940;51.052;13.678;2023-04-25T04:16:59;14.53;;;5.53;;
3849;SDS011;1940;51.052;13.678;2023-04-25T04:19:24;11.30;;;5.63;;
3849;SDS011;1940;51.052;13.678;2023-04-25T04:21:50;9.43;;;4.90;;
3849;SDS011;1940;51.052;13.678;2023-04-25T04:24:15;16.60;;;5.73;;
3849;SDS011;1940;51.052;13.678;2023-04-25T04:26:41;10.60;;;5.93;;
3849;SDS011;1940;51.052;13.678;2023-04-25T04:29:09;12.77;;;6.10;;
3849;SDS011;1940;51.052;13.678;2023-04-25T04:31:35;8.93;;;5.37;;
3849;SDS011;1940;51.052;13.678;2023-04-25T04:34:01;10.27;;;5.80;;
3849;SDS011;1940;51.052;13.678;2023-04-25T04:36:28;7.67;;;5.00;;
3849;SDS011;1940;51.052;13.678;2023-04-25T04:38:54;8.00;;;5.27;;
3849;SDS011;1940;51.052;13.678;2023-04-25T04:41:21;9.43;;;5.13;;
3849;SDS011;1940;51.052;13.678;2023-04-25T04:43:46;9.40;;;5.97;;
3849;SDS011;1940;51.052;13.678;2023-04-25T04:46:12;11.87;;;6.10;;
3849;SDS011;1940;51.052;13.678;2023-04-25T04:48:38;8.40;;;6.17;;
3849;SDS011;1940;51.052;13.678;2023-04-25T04:51:05;13.00;;;6.70;;
3849;SDS011;1940;51.052;13.678;2023-04-25T04:53:31;9.63;;;6.00;;
3849;SDS011;1940;51.052;13.678;2023-04-25T04:55:57;9.93;;;6.47;;
3849;SDS011;1940;51.052;13.678;2023-04-25T04:58:23;9.57;;;6.30;;
3849;SDS011;1940;51.052;13.678;2023-04-25T05:00:48;15.40;;;7.03;;
3849;SDS011;1940;51.052;13.678;2023-04-25T05:03:14;12.27;;;5.37;;
3849;SDS011;1940;51.052;13.678;2023-04-25T05:05:40;6.43;;;4.57;;
3849;SDS011;1940;51.052;13.678;2023-04-25T05:08:06;8.43;;;5.00;;
3849;SDS011;1940;51.052;13.678;2023-04-25T05:10:31;12.30;;;5.40;;
3849;SDS011;1940;51.052;13.678;2023-04-25T05:12:57;8.20;;;4.30;;
3849;SDS011;1940;51.052;13.678;2023-04-25T05:15:22;12.23;;;4.90;;
3849;SDS011;1940;51.052;13.678;2023-04-25T05:17:48;6.90;;;4.90;;
3849;SDS011;1940;51.052;13.678;2023-04-25T05:20:13;10.43;;;5.13;;
3849;SDS011;1940;51.052;13.678;2023-04-25T05:22:39;7.70;;;4.53;;
3849;SDS011;1940;51.052;13.678;2023-04-25T05:25:06;8.47;;;4.43;;
3849;SDS011;1940;51.052;13.678;2023-04-25T05:27:32;9.67;;;4.20;;
3849;SDS011;1940;51.052;13.678;2023-04-25T05:29:58;7.93;;;4.20;;
3849;SDS011;1940;51.052;13.678;2023-04-25T05:32:23;7.87;;;4.10;;
3849;SDS011;1940;51.052;13.678;2023-04-25T05:34:49;9.40;;;4.53;;
3849;SDS011;1940;51.052;13.678;2023-04-25T05:37:15;7.50;;;4.20;;
3849;SDS011;1940;51.052;13.678;2023-04-25T05:39:41;7.73;;;4.93;;
3849;SDS011;1940;51.052;13.678;2023-04-25T05:42:06;5.30;;;4.10;;
3849;SDS011;1940;51.052;13.678;2023-04-25T05:44:32;8.80;;;4.50;;
3849;SDS011;1940;51.052;13.678;2023-04-25T05:46:57;9.57;;;4.83;;
3849;SDS011;1940;51.052;13.678;2023-04-25T05:49:23;7.60;;;3.90;;
3849;SDS011;1940;51.052;13.678;2023-04-25T05:51:48;5.93;;;4.23;;
3849;SDS011;1940;51.052;13.678;2023-04-25T05:54:14;5.90;;;4.10;;
3849;SDS011;1940;51.052;13.678;2023-04-25T05:56:39;7.07;;;4.83;;
3849;SDS011;1940;51.052;13.678;2023-04-25T05:59:05;6.77;;;4.20;;
3849;SDS011;1940;51.052;13.678;2023-04-25T06:01:31;5.47;;;3.97;;
3849;SDS011;1940;51.052;13.678;2023-04-25T06:03:56;7.70;;;5.00;;
3849;SDS011;1940;51.052;13.678;2023-04-25T06:06:22;9.07;;;5.17;;
3849;SDS011;1940;51.052;13.678;2023-04-25T06:08:47;8.00;;;5.00;;
3849;SDS011;1940;51.052;13.678;2023-04-25T06:11:13;9.17;;;5.30;;
3849;SDS011;1940;51.052;13.678;2023-04-25T06:13:38;8.73;;;4.40;;
3849;SDS011;1940;51.052;13.678;2023-04-25T06:16:04;8.00;;;5.10;;
3849;SDS011;1940;51.052;13.678;2023-04-25T06:18:30;7.97;;;4.80;;
3849;SDS011;1940;51.052;13.678;2023-04-25T06:20:56;8.90;;;5.27;;
3849;SDS011;1940;51.052;13.678;2023-04-25T06:23:21;9.80;;;4.83;;
3849;SDS011;1940;51.052;13.678;2023-04-25T06:25:47;10.37;;;5.40;;
3849;SDS011;1940;51.052;13.678;2023-04-25T06:28:12;14.23;;;5.23;;
3849;SDS011;1940;51.052;13.678;2023-04-25T06:30:38;13.83;;;5.23;;
3849;SDS011;1940;51.052;13.678;2023-04-25T06:33:03;8.37;;;5.50;;
3849;SDS011;1940;51.052;13.678;2023-04-25T06:35:29;8.17;;;5.10;;
3849;SDS011;1940;51.052;13.678;2023-04-25T06:37:54;6.83;;;4.57;;
3849;SDS011;1940;51.052;13.678;2023-04-25T06:40:20;17.53;;;5.87;;
3849;SDS011;1940;51.052;13.678;2023-04-25T06:42:45;9.13;;;4.83;;
3849;SDS011;1940;51.052;13.678;2023-04-25T06:45:11;7.17;;;4.53;;
3849;SDS011;1940;51.052;13.678;2023-04-25T06:47:36;9.20;;;4.70;;
3849;SDS011;1940;51.052;13.678;2023-04-25T06:50:02;10.23;;;5.20;;
3849;SDS011;1940;51.052;13.678;2023-04-25T06:52:28;6.00;;;4.30;;
3849;SDS011;1940;51.052;13.678;2023-04-25T06:54:53;10.27;;;6.17;;
3849;SDS011;1940;51.052;13.678;2023-04-25T06:57:18;11.17;;;5.33;;
3849;SDS011;1940;51.052;13.678;2023-04-25T06:59:44;9.33;;;5.27;;
3849;SDS011;1940;51.052;13.678;2023-04-25T07:02:10;8.83;;;4.63;;
3849;SDS011;1940;51.052;13.678;2023-04-25T07:04:35;12.03;;;5.10;;
3849;SDS011;1940;51.052;13.678;2023-04-25T07:07:01;10.73;;;5.20;;
3849;SDS011;1940;51.052;13.678;2023-04-25T07:09:28;9.47;;;4.80;;
3849;SDS011;1940;51.052;13.678;2023-04-25T07:11:53;6.60;;;4.13;;
3849;SDS011;1940;51.052;13.678;2023-04-25T07:14:19;15.90;;;4.83;;
3849;SDS011;1940;51.052;13.678;2023-04-25T07:16:45;7.13;;;4.27;;
3849;SDS011;1940;51.052;13.678;2023-04-25T07:19:10;11.10;;;4.57;;
3849;SDS011;1940;51.052;13.678;2023-04-25T07:21:36;10.83;;;4.57;;
3849;SDS011;1940;51.052;13.678;2023-04-25T07:24:01;9.10;;;4.40;;
3849;SDS011;1940;51.052;13.678;2023-04-25T07:26:27;6.70;;;4.20;;
3849;SDS011;1940;51.052;13.678;2023-04-25T07:28:52;5.40;;;4.00;;
3849;SDS011;1940;51.052;13.678;2023-04-25T07:31:19;7.47;;;4.70;;
3849;SDS011;1940;51.052;13.678;2023-04-25T07:33:45;7.57;;;4.40;;
3849;SDS011;1940;51.052;13.678;2023-04-25T07:36:10;7.87;;;3.90;;
3849;SDS011;1940;51.052;13.678;2023-04-25T07:38:37;13.80;;;4.60;;
3849;SDS011;1940;51.052;13.678;2023-04-25T07:41:02;8.30;;;4.60;;
3849;SDS011;1940;51.052;13.678;2023-04-25T07:43:28;9.67;;;4.30;;
3849;SDS011;1940;51.052;13.678;2023-04-25T07:45:54;8.17;;;4.43;;
3849;SDS011;1940;51.052;13.678;2023-04-25T07:48:19;11.53;;;4.50;;
3849;SDS011;1940;51.052;13.678;2023-04-25T07:50:45;12.33;;;4.80;;
3849;SDS011;1940;51.052;13.678;2023-04-25T07:53:10;5.93;;;3.30;;
3849;SDS011;1940;51.052;13.678;2023-04-25T07:55:36;7.23;;;3.27;;
3849;SDS011;1940;51.052;13.678;2023-04-25T07:58:04;6.53;;;3.60;;
3849;SDS011;1940;51.052;13.678;2023-04-25T08:00:33;6.00;;;3.27;;
3849;SDS011;1940;51.052;13.678;2023-04-25T08:02:59;6.70;;;3.50;;
3849;SDS011;1940;51.052;13.678;2023-04-25T08:05:24;7.17;;;4.27;;
3849;SDS011;1940;51.052;13.678;2023-04-25T08:07:50;7.30;;;3.97;;
3849;SDS011;1940;51.052;13.678;2023-04-25T08:10:15;7.97;;;3.73;;
3849;SDS011;1940;51.052;13.678;2023-04-25T08:12:41;7.33;;;3.63;;
3849;SDS011;1940;51.052;13.678;2023-04-25T08:15:07;10.30;;;3.90;;
3849;SDS011;1940;51.052;13.678;2023-04-25T08:17:33;7.60;;;4.33;;
3849;SDS011;1940;51.052;13.678;2023-04-25T08:19:59;5.77;;;3.80;;
3849;SDS011;1940;51.052;13.678;2023-04-25T08:22:24;5.00;;;3.50;;
3849;SDS011;1940;51.052;13.678;2023-04-25T08:24:49;5.10;;;3.60;;
3849;SDS011;1940;51.052;13.678;2023-04-25T08:27:15;6.43;;;3.60;;
3849;SDS011;1940;51.052;13.678;2023-04-25T08:29:41;6.47;;;4.27;;
3849;SDS011;1940;51.052;13.678;2023-04-25T08:32:07;8.40;;;4.10;;
3849;SDS011;1940;51.052;13.678;2023-04-25T08:34:32;6.13;;;3.27;;
3849;SDS011;1940;51.052;13.678;2023-04-25T08:36:58;5.83;;;3.67;;
3849;SDS011;1940;51.052;13.678;2023-04-25T08:39:23;7.47;;;3.77;;
3849;SDS011;1940;51.052;13.678;2023-04-25T08:41:49;5.50;;;4.00;;
3849;SDS011;1940;51.052;13.678;2023-04-25T08:44:15;5.20;;;3.80;;
3849;SDS011;1940;51.052;13.678;2023-04-25T08:46:41;9.90;;;5.17;;
3849;SDS011;1940;51.052;13.678;2023-04-25T08:49:07;6.90;;;3.97;;
3849;SDS011;1940;51.052;13.678;2023-04-25T08:51:39;8.73;;;4.47;;
3849;SDS011;1940;51.052;13.678;2023-04-25T08:54:11;12.07;;;4.90;;
3849;SDS011;1940;51.052;13.678;2023-04-25T08:56:38;8.30;;;5.17;;
3849;SDS011;1940;51.052;13.678;2023-04-25T08:59:05;10.83;;;4.67;;
3849;SDS011;1940;51.052;13.678;2023-04-25T09:01:32;6.50;;;4.20;;
3849;SDS011;1940;51.052;13.678;2023-04-25T09:04:01;8.13;;;5.20;;
3849;SDS011;1940;51.052;13.678;2023-04-25T09:06:28;7.17;;;4.23;;
3849;SDS011;1940;51.052;13.678;2023-04-25T09:08:55;7.47;;;4.73;;
3849;SDS011;1940;51.052;13.678;2023-04-25T09:11:27;10.87;;;4.57;;
3849;SDS011;1940;51.052;13.678;2023-04-25T09:14:09;8.60;;;4.90;;
3849;SDS011;1940;51.052;13.678;2023-04-25T09:16:58;11.37;;;4.83;;
3849;SDS011;1940;51.052;13.678;2023-04-25T09:19:30;9.50;;;4.63;;
3849;SDS011;1940;51.052;13.678;2023-04-25T09:21:57;7.73;;;4.67;;
3849;SDS011;1940;51.052;13.678;2023-04-25T09:24:40;8.37;;;4.37;;
3849;SDS011;1940;51.052;13.678;2023-04-25T09:27:11;7.17;;;3.97;;
3849;SDS011;1940;51.052;13.678;2023-04-25T09:29:39;8.97;;;4.57;;
3849;SDS011;1940;51.052;13.678;2023-04-25T09:34:50;10.67;;;5.17;;
3849;SDS011;1940;51.052;13.678;2023-04-25T09:37:18;9.23;;;5.40;;
3849;SDS011;1940;51.052;13.678;2023-04-25T09:39:45;7.00;;;4.87;;
3849;SDS011;1940;51.052;13.678;2023-04-25T09:42:15;8.40;;;5.20;;
3849;SDS011;1940;51.052;13.678;2023-04-25T09:44:42;10.30;;;6.53;;
3849;SDS011;1940;51.052;13.678;2023-04-25T09:47:12;9.00;;;5.87;;
3849;SDS011;1940;51.052;13.678;2023-04-25T09:49:42;7.00;;;5.53;;
3849;SDS011;1940;51.052;13.678;2023-04-25T09:52:09;12.70;;;6.20;;
3849;SDS011;1940;51.052;13.678;2023-04-25T09:54:39;10.87;;;6.40;;
3849;SDS011;1940;51.052;13.678;2023-04-25T09:57:09;11.00;;;5.80;;
3849;SDS011;1940;51.052;13.678;2023-04-25T09:59:54;8.80;;;5.13;;
3849;SDS011;1940;51.052;13.678;2023-04-25T10:02:21;9.17;;;5.60;;
3849;SDS011;1940;51.052;13.678;2023-04-25T10:04:49;9.17;;;4.90;;
3849;SDS011;1940;51.052;13.678;2023-04-25T10:07:17;8.07;;;4.73;;
3849;SDS011;1940;51.052;13.678;2023-04-25T10:09:47;8.27;;;4.63;;
3849;SDS011;1940;51.052;13.678;2023-04-25T10:12:15;6.13;;;4.10;;
3849;SDS011;1940;51.052;13.678;2023-04-25T10:14:41;8.57;;;4.57;;
3849;SDS011;1940;51.052;13.678;2023-04-25T10:17:08;5.73;;;3.90;;
3849;SDS011;1940;51.052;13.678;2023-04-25T10:19:35;9.90;;;5.03;;
3849;SDS011;1940;51.052;13.678;2023-04-25T10:24:29;10.60;;;5.10;;
3849;SDS011;1940;51.052;13.678;2023-04-25T10:26:55;7.87;;;5.00;;
3849;SDS011;1940;51.052;13.678;2023-04-25T10:29:23;7.43;;;5.30;;
3849;SDS011;1940;51.052;13.678;2023-04-25T10:31:50;6.30;;;4.30;;
3849;SDS011;1940;51.052;13.678;2023-04-25T10:34:16;12.17;;;5.23;;
3849;SDS011;1940;51.052;13.678;2023-04-25T10:36:42;7.70;;;4.80;;
3849;SDS011;1940;51.052;13.678;2023-04-25T10:39:08;8.37;;;5.17;;
3849;SDS011;1940;51.052;13.678;2023-04-25T10:41:48;12.67;;;5.40;;
3849;SDS011;1940;51.052;13.678;2023-04-25T10:44:21;9.27;;;4.60;;
3849;SDS011;1940;51.052;13.678;2023-04-25T10:46:47;6.90;;;5.40;;
3849;SDS011;1940;51.052;13.678;2023-04-25T10:52:11;11.07;;;6.40;;
3849;SDS011;1940;51.052;13.678;2023-04-25T10:54:48;9.20;;;5.10;;
3849;SDS011;1940;51.052;13.678;2023-04-25T10:57:26;7.23;;;5.00;;
3849;SDS011;1940;51.052;13.678;2023-04-25T11:00:14;10.10;;;6.23;;
3849;SDS011;1940;51.052;13.678;2023-04-25T11:02:45;11.50;;;6.30;;
3849;SDS011;1940;51.052;13.678;2023-04-25T11:05:31;12.13;;;6.53;;
3849;SDS011;1940;51.052;13.678;2023-04-25T11:07:58;9.07;;;5.73;;
3849;SDS011;1940;51.052;13.678;2023-04-25T11:10:31;9.53;;;5.03;;
3849;SDS011;1940;51.052;13.678;2023-04-25T11:12:58;11.83;;;5.57;;
3849;SDS011;1940;51.052;13.678;2023-04-25T11:15:23;11.80;;;5.80;;
3849;SDS011;1940;51.052;13.678;2023-04-25T11:17:52;9.37;;;5.07;;
3849;SDS011;1940;51.052;13.678;2023-04-25T11:20:19;15.63;;;6.07;;
3849;SDS011;1940;51.052;13.678;2023-04-25T11:22:45;11.60;;;5.97;;
3849;SDS011;1940;51.052;13.678;2023-04-25T11:25:12;10.87;;;5.23;;
3849;SDS011;1940;51.052;13.678;2023-04-25T11:27:51;9.00;;;3.90;;
3849;SDS011;1940;51.052;13.678;2023-04-25T11:30:22;5.13;;;2.80;;
3849;SDS011;1940;51.052;13.678;2023-04-25T11:32:49;7.47;;;2.60;;
3849;SDS011;1940;51.052;13.678;2023-04-25T11:35:15;4.70;;;2.27;;
3849;SDS011;1940;51.052;13.678;2023-04-25T11:37:41;3.77;;;2.40;;
3849;SDS011;1940;51.052;13.678;2023-04-25T11:40:10;6.17;;;2.90;;
3849;SDS011;1940;51.052;13.678;2023-04-25T11:42:41;9.83;;;3.00;;
3849;SDS011;1940;51.052;13.678;2023-04-25T11:45:09;5.23;;;2.80;;
3849;SDS011;1940;51.052;13.678;2023-04-25T11:47:35;8.10;;;3.40;;
3849;SDS011;1940;51.052;13.678;2023-04-25T11:50:02;5.63;;;3.20;;
3849;SDS011;1940;51.052;13.678;2023-04-25T11:53:02;6.73;;;3.43;;
3849;SDS011;1940;51.052;13.678;2023-04-25T11:55:21;7.30;;;3.40;;
3849;SDS011;1940;51.052;13.678;2023-04-25T11:57:48;5.27;;;3.17;;
3849;SDS011;1940;51.052;13.678;2023-04-25T12:00:16;5.90;;;2.70;;
3849;SDS011;1940;51.052;13.678;2023-04-25T12:02:46;6.80;;;3.00;;
3849;SDS011;1940;51.052;13.678;2023-04-25T12:05:13;5.53;;;2.80;;
3849;SDS011;1940;51.052;13.678;2023-04-25T12:07:40;6.13;;;3.10;;
3849;SDS011;1940;51.052;13.678;2023-04-25T12:10:08;5.50;;;3.30;;
3849;SDS011;1940;51.052;13.678;2023-04-25T12:12:37;7.27;;;2.73;;
3849;SDS011;1940;51.052;13.678;2023-04-25T12:17:44;8.03;;;3.10;;
3849;SDS011;1940;51.052;13.678;2023-04-25T12:20:15;7.00;;;2.90;;
3849;SDS011;1940;51.052;13.678;2023-04-25T12:22:43;10.67;;;3.10;;
3849;SDS011;1940;51.052;13.678;2023-04-25T12:25:12;6.80;;;3.03;;
3849;SDS011;1940;51.052;13.678;2023-04-25T12:28:08;6.97;;;3.17;;
3849;SDS011;1940;51.052;13.678;2023-04-25T12:33:24;13.40;;;4.23;;
3849;SDS011;1940;51.052;13.678;2023-04-25T12:35:51;9.70;;;3.90;;
3849;SDS011;1940;51.052;13.678;2023-04-25T12:38:24;11.50;;;3.50;;
3849;SDS011;1940;51.052;13.678;2023-04-25T12:40:51;5.80;;;3.37;;
3849;SDS011;1940;51.052;13.678;2023-04-25T12:43:17;9.37;;;3.70;;
3849;SDS011;1940;51.052;13.678;2023-04-25T12:45:43;9.07;;;3.67;;
3849;SDS011;1940;51.052;13.678;2023-04-25T12:48:10;11.50;;;3.63;;
3849;SDS011;1940;51.052;13.678;2023-04-25T12:50:35;6.80;;;3.20;;
3849;SDS011;1940;51.052;13.678;2023-04-25T12:53:01;6.97;;;3.30;;
3849;SDS011;1940;51.052;13.678;2023-04-25T12:55:26;15.23;;;3.47;;
3849;SDS011;1940;51.052;13.678;2023-04-25T12:57:52;7.63;;;3.50;;
3849;SDS011;1940;51.052;13.678;2023-04-25T13:00:17;10.23;;;4.10;;
3849;SDS011;1940;51.052;13.678;2023-04-25T13:02:44;15.10;;;4.03;;
3849;SDS011;1940;51.052;13.678;2023-04-25T13:05:11;11.00;;;4.10;;
3849;SDS011;1940;51.052;13.678;2023-04-25T13:07:37;7.50;;;3.93;;
3849;SDS011;1940;51.052;13.678;2023-04-25T13:10:03;8.80;;;3.87;;
3849;SDS011;1940;51.052;13.678;2023-04-25T13:12:29;9.70;;;4.37;;
3849;SDS011;1940;51.052;13.678;2023-04-25T13:14:55;8.57;;;3.80;;
3849;SDS011;1940;51.052;13.678;2023-04-25T13:17:21;11.27;;;4.60;;
3849;SDS011;1940;51.052;13.678;2023-04-25T13:19:46;9.20;;;3.50;;
3849;SDS011;1940;51.052;13.678;2023-04-25T13:22:11;12.10;;;4.67;;
3849;SDS011;1940;51.052;13.678;2023-04-25T13:24:40;25.43;;;4.30;;
3849;SDS011;1940;51.052;13.678;2023-04-25T13:27:05;19.17;;;5.00;;
3849;SDS011;1940;51.052;13.678;2023-04-25T13:29:31;11.70;;;4.83;;
3849;SDS011;1940;51.052;13.678;2023-04-25T13:31:59;13.20;;;4.80;;
3849;SDS011;1940;51.052;13.678;2023-04-25T13:34:24;7.20;;;3.93;;
3849;SDS011;1940;51.052;13.678;2023-04-25T13:36:50;21.00;;;4.90;;
3849;SDS011;1940;51.052;13.678;2023-04-25T13:39:15;7.77;;;4.97;;
3849;SDS011;1940;51.052;13.678;2023-04-25T13:41:41;5.83;;;3.70;;
3849;SDS011;1940;51.052;13.678;2023-04-25T13:44:06;6.53;;;3.17;;
3849;SDS011;1940;51.052;13.678;2023-04-25T13:46:31;13.43;;;3.90;;
3849;SDS011;1940;51.052;13.678;2023-04-25T13:48:57;17.73;;;4.57;;
3849;SDS011;1940;51.052;13.678;2023-04-25T13:51:22;18.23;;;3.80;;
3849;SDS011;1940;51.052;13.678;2023-04-25T13:53:48;11.03;;;3.77;;
3849;SDS011;1940;51.052;13.678;2023-04-25T13:56:13;14.30;;;3.70;;
3849;SDS011;1940;51.052;13.678;2023-04-25T13:58:39;14.40;;;4.50;;
3849;SDS011;1940;51.052;13.678;2023-04-25T14:01:05;9.97;;;4.30;;
3849;SDS011;1940;51.052;13.678;2023-04-25T14:03:30;6.23;;;3.43;;
3849;SDS011;1940;51.052;13.678;2023-04-25T14:05:56;4.83;;;3.50;;
3849;SDS011;1940;51.052;13.678;2023-04-25T14:08:21;8.93;;;3.50;;
3849;SDS011;1940;51.052;13.678;2023-04-25T14:10:47;9.70;;;3.93;;
3849;SDS011;1940;51.052;13.678;2023-04-25T14:13:12;6.63;;;3.77;;
3849;SDS011;1940;51.052;13.678;2023-04-25T14:15:38;13.23;;;3.73;;
3849;SDS011;1940;51.052;13.678;2023-04-25T14:18:03;18.30;;;4.93;;
3849;SDS011;1940;51.052;13.678;2023-04-25T14:20:29;12.07;;;4.87;;
3849;SDS011;1940;51.052;13.678;2023-04-25T14:22:55;12.83;;;4.53;;
3849;SDS011;1940;51.052;13.678;2023-04-25T14:25:21;15.63;;;4.30;;
3849;SDS011;1940;51.052;13.678;2023-04-25T14:27:47;7.70;;;4.13;;
3849;SDS011;1940;51.052;13.678;2023-04-25T14:30:15;9.27;;;4.20;;
3849;SDS011;1940;51.052;13.678;2023-04-25T14:32:41;12.70;;;4.50;;
3849;SDS011;1940;51.052;13.678;2023-04-25T14:35:07;9.87;;;4.70;;
3849;SDS011;1940;51.052;13.678;2023-04-25T14:37:33;16.23;;;4.90;;
3849;SDS011;1940;51.052;13.678;2023-04-25T14:39:59;14.10;;;5.00;;
3849;SDS011;1940;51.052;13.678;2023-04-25T14:42:24;8.40;;;3.97;;
3849;SDS011;1940;51.052;13.678;2023-04-25T14:44:50;12.80;;;4.20;;
3849;SDS011;1940;51.052;13.678;2023-04-25T14:47:16;11.37;;;4.07;;
3849;SDS011;1940;51.052;13.678;2023-04-25T14:49:41;12.97;;;3.90;;
3849;SDS011;1940;51.052;13.678;2023-04-25T14:52:07;16.10;;;4.10;;
3849;SDS011;1940;51.052;13.678;2023-04-25T14:54:33;10.97;;;4.77;;
3849;SDS011;1940;51.052;13.678;2023-04-25T14:56:58;12.23;;;4.23;;
3849;SDS011;1940;51.052;13.678;2023-04-25T14:59:24;13.70;;;4.03;;
3849;SDS011;1940;51.052;13.678;2023-04-25T15:01:50;7.00;;;3.30;;
3849;SDS011;1940;51.052;13.678;2023-04-25T15:04:15;8.00;;;4.13;;
3849;SDS011;1940;51.052;13.678;2023-04-25T15:06:42;9.20;;;3.73;;
3849;SDS011;1940;51.052;13.678;2023-04-25T15:09:08;11.30;;;3.83;;
3849;SDS011;1940;51.052;13.678;2023-04-25T15:11:34;10.03;;;3.80;;